createdAt,value
2022-08-18T00:02:37.631Z,20.95
2022-08-18T00:07:42.328Z,20.90
2022-08-18T00:12:49.464Z,20.84
2022-08-18T00:17:50.094Z,20.91
2022-08-18T00:22:51.697Z,20.81
2022-08-18T00:27:53.897Z,20.90
2022-08-18T00:32:57.015Z,20.98
2022-08-18T00:37:59.506Z,21.07
2022-08-18T00:43:04.057Z,21.07
2022-08-18T00:48:06.539Z,20.92
2022-08-18T00:53:12.529Z,20.91
2022-08-18T00:58:21.872Z,20.82
2022-08-18T01:03:25.033Z,20.71
2022-08-18T01:08:29.173Z,20.60
2022-08-18T01:13:33.610Z,20.55
2022-08-18T01:18:52.283Z,20.47
2022-08-18T01:23:55.572Z,20.41
2022-08-18T01:28:56.238Z,20.29
2022-08-18T01:33:57.245Z,20.29
2022-08-18T01:38:59.283Z,20.18
2022-08-18T01:44:00.683Z,20.20
2022-08-18T01:49:02.008Z,20.27
2022-08-18T01:54:05.420Z,20.24
2022-08-18T01:59:06.977Z,20.37
2022-08-18T02:04:33.209Z,20.40
2022-08-18T02:09:30.194Z,20.27
2022-08-18T02:14:31.302Z,20.22
2022-08-18T02:19:35.175Z,20.28
2022-08-18T02:24:37.377Z,20.36
2022-08-18T02:29:38.386Z,20.22
2022-08-18T02:34:38.995Z,20.21
2022-08-18T02:39:41.361Z,20.09
2022-08-18T02:44:42.200Z,20.19
2022-08-18T02:49:42.782Z,20.39
2022-08-18T02:54:44.952Z,20.33
2022-08-18T02:59:46.910Z,20.11
2022-08-18T03:04:49.385Z,20.00
2022-08-18T03:09:51.409Z,19.95
2022-08-18T03:14:52.083Z,19.98
2022-08-18T03:19:52.933Z,19.96
2022-08-18T03:24:56.845Z,19.89
2022-08-18T03:29:58.701Z,19.99
2022-08-18T03:34:59.729Z,19.92
2022-08-18T03:40:01.776Z,19.80
2022-08-18T03:45:13.015Z,19.90
2022-08-18T03:50:19.565Z,19.86
2022-08-18T03:55:21.706Z,19.80
2022-08-18T04:00:23.558Z,19.60
2022-08-18T04:05:24.149Z,19.51
2022-08-18T04:10:26.583Z,19.51
2022-08-18T04:15:27.277Z,19.49
2022-08-18T04:20:28.591Z,19.49
2022-08-18T04:25:33.169Z,19.38
2022-08-18T04:30:34.030Z,19.38
2022-08-18T04:35:34.627Z,19.34
2022-08-18T04:40:37.507Z,19.30
2022-08-18T04:45:40.103Z,19.34
2022-08-18T04:50:40.786Z,19.35
2022-08-18T04:55:49.313Z,19.41
2022-08-18T05:00:58.469Z,19.49
2022-08-18T05:06:00.394Z,19.60
2022-08-18T05:11:04.258Z,19.68
2022-08-18T05:16:11.117Z,19.73
2022-08-18T05:21:15.675Z,19.84
2022-08-18T05:26:19.925Z,19.89
2022-08-18T05:31:24.309Z,20.01
2022-08-18T05:36:47.735Z,20.12
2022-08-18T05:41:52.816Z,20.06
2022-08-18T05:46:56.986Z,20.10
2022-08-18T05:52:01.965Z,20.15
2022-08-18T05:57:08.980Z,20.44
2022-08-18T06:02:15.968Z,20.56
2022-08-18T06:07:19.513Z,20.78
2022-08-18T06:12:33.480Z,20.95
2022-08-18T06:17:58.425Z,21.12
2022-08-18T06:23:14.827Z,21.32
2022-08-18T06:28:18.144Z,21.55
2022-08-18T06:33:43.698Z,21.84
2022-08-18T06:38:58.287Z,22.10
2022-08-18T06:44:04.010Z,22.37
2022-08-18T06:49:08.495Z,22.44
2022-08-18T06:54:27.974Z,22.62
2022-08-18T06:59:32.041Z,22.86
2022-08-18T07:04:44.290Z,23.07
2022-08-18T07:09:45.477Z,23.12
2022-08-18T07:14:50.481Z,23.21
2022-08-18T07:20:03.577Z,23.51
2022-08-18T07:25:06.054Z,24.08
2022-08-18T07:30:15.608Z,24.70
2022-08-18T07:35:39.118Z,25.26
2022-08-18T07:40:47.074Z,25.75
2022-08-18T07:45:49.048Z,26.19
2022-08-18T07:51:04.151Z,26.56
2022-08-18T07:56:19.610Z,26.92
2022-08-18T08:01:29.694Z,26.74
2022-08-18T08:06:40.268Z,27.06
2022-08-18T08:11:52.287Z,27.32
2022-08-18T08:17:02.900Z,27.59
2022-08-18T08:22:10.261Z,27.64
2022-08-18T08:27:18.832Z,27.54
2022-08-18T08:32:31.933Z,27.65
2022-08-18T08:37:41.786Z,27.98
2022-08-18T08:42:48.838Z,28.15
2022-08-18T08:48:08.503Z,28.89
2022-08-18T08:53:20.546Z,29.34
2022-08-18T08:58:26.503Z,29.81
2022-08-18T09:03:39.644Z,29.65
2022-08-18T09:08:53.038Z,29.24
2022-08-18T09:14:25.014Z,29.02
2022-08-18T09:19:49.045Z,28.66
2022-08-18T09:24:53.281Z,28.70
2022-08-18T09:29:57.525Z,28.64
2022-08-18T09:35:12.746Z,28.59
2022-08-18T09:41:01.073Z,28.74
2022-08-18T09:45:58.559Z,29.24
2022-08-18T09:51:23.542Z,29.69
2022-08-18T09:57:16.570Z,29.70
2022-08-18T10:02:56.241Z,29.56
2022-08-18T10:08:30.722Z,29.91
2022-08-18T10:19:10.576Z,29.95
2022-08-18T10:24:36.655Z,29.82
2022-08-18T10:29:48.330Z,29.39
2022-08-18T10:34:52.886Z,29.15
2022-08-18T10:39:59.126Z,29.37
2022-08-18T10:45:07.757Z,29.35
2022-08-18T10:50:21.466Z,29.38
2022-08-18T10:55:54.749Z,29.35
2022-08-18T11:01:08.960Z,28.98
2022-08-18T11:06:17.841Z,28.84
2022-08-18T11:11:34.661Z,28.79
2022-08-18T11:16:55.978Z,28.80
2022-08-18T11:21:57.184Z,28.90
2022-08-18T11:27:02.011Z,29.13
2022-08-18T11:37:48.662Z,28.59
2022-08-18T11:42:58.492Z,28.62
2022-08-18T11:53:44.196Z,27.95
2022-08-18T11:58:50.505Z,27.88
2022-08-18T12:03:51.486Z,27.51
2022-08-18T12:08:59.142Z,27.36
2022-08-18T12:19:30.660Z,27.22
2022-08-18T12:29:58.264Z,27.53
2022-08-18T12:35:03.525Z,27.65
2022-08-18T12:40:10.442Z,27.85
2022-08-18T12:45:13.042Z,28.02
2022-08-18T12:50:13.769Z,28.06
2022-08-18T12:55:21.347Z,28.59
2022-08-18T13:00:28.890Z,28.52
2022-08-18T13:05:30.269Z,28.30
2022-08-18T13:10:42.893Z,28.55
2022-08-18T13:15:57.749Z,28.58
2022-08-18T13:21:00.207Z,28.73
2022-08-18T13:26:03.290Z,28.43
2022-08-18T13:31:06.022Z,28.44
2022-08-18T13:36:07.196Z,28.60
2022-08-18T13:41:08.696Z,29.07
2022-08-18T13:46:19.758Z,29.12
2022-08-18T13:51:32.068Z,29.17
2022-08-18T13:56:32.657Z,29.66
2022-08-18T14:01:44.642Z,29.63
2022-08-18T14:06:57.190Z,29.25
2022-08-18T14:11:59.212Z,29.44
2022-08-18T14:17:01.913Z,29.32
2022-08-18T14:22:20.087Z,29.33
2022-08-18T14:27:25.686Z,29.01
2022-08-18T14:32:29.990Z,28.83
2022-08-18T14:37:31.165Z,28.59
2022-08-18T14:42:41.749Z,28.51
2022-08-18T14:47:58.016Z,28.54
2022-08-18T14:52:59.101Z,28.72
2022-08-18T14:57:59.863Z,28.68
2022-08-18T15:03:01.810Z,28.58
2022-08-18T15:08:04.693Z,28.42
2022-08-18T15:13:05.447Z,28.34
2022-08-18T15:18:08.069Z,28.25
2022-08-18T15:23:36.405Z,28.19
2022-08-18T15:28:38.971Z,28.54
2022-08-18T15:33:42.120Z,28.66
2022-08-18T15:38:42.734Z,28.57
2022-08-18T15:43:46.025Z,28.87
2022-08-18T15:48:48.390Z,28.93
2022-08-18T15:53:49.131Z,28.92
2022-08-18T15:58:50.407Z,29.10
2022-08-18T16:03:54.515Z,28.75
2022-08-18T16:08:55.512Z,28.70
2022-08-18T16:13:58.624Z,28.27
2022-08-18T16:19:01.897Z,28.20
2022-08-18T16:24:02.622Z,27.97
2022-08-18T16:29:03.267Z,27.69
2022-08-18T16:34:05.837Z,27.59
2022-08-18T16:39:06.536Z,27.52
2022-08-18T16:44:07.588Z,27.34
2022-08-18T16:49:10.261Z,27.20
2022-08-18T16:54:10.864Z,27.18
2022-08-18T17:04:35.945Z,27.04
2022-08-18T17:09:37.222Z,26.88
2022-08-18T17:14:39.138Z,26.79
2022-08-18T17:19:41.098Z,26.68
2022-08-18T17:24:44.098Z,26.75
2022-08-18T17:30:00.472Z,26.65
2022-08-18T17:35:05.951Z,26.69
2022-08-18T17:40:14.310Z,26.65
2022-08-18T17:45:21.624Z,26.55
2022-08-18T17:50:46.787Z,26.48
2022-08-18T17:55:51.527Z,26.31
2022-08-18T18:00:52.614Z,26.31
2022-08-18T18:06:04.058Z,26.15
2022-08-18T18:11:12.534Z,26.06
2022-08-18T18:16:28.033Z,26.08
2022-08-18T18:22:01.035Z,25.93
2022-08-18T18:26:54.218Z,25.72
2022-08-18T18:32:01.946Z,25.58
2022-08-18T18:37:04.024Z,25.45
2022-08-18T18:42:17.624Z,25.23
2022-08-18T18:47:38.506Z,25.07
2022-08-18T18:52:47.962Z,24.98
2022-08-18T18:58:00.014Z,24.89
2022-08-18T19:03:07.680Z,24.77
2022-08-18T19:08:20.087Z,24.77
2022-08-18T19:13:32.648Z,24.70
2022-08-18T19:18:40.121Z,24.71
2022-08-18T19:23:46.446Z,24.72
2022-08-18T19:29:11.933Z,24.65
2022-08-18T19:34:16.369Z,24.63
2022-08-18T19:39:28.208Z,24.59
2022-08-18T19:44:35.659Z,24.56
2022-08-18T19:49:42.536Z,24.47
2022-08-18T19:54:57.803Z,24.29
2022-08-18T20:00:13.038Z,24.13
2022-08-18T20:05:22.763Z,23.95
2022-08-18T20:10:45.606Z,23.72
2022-08-18T20:16:12.024Z,23.58
2022-08-18T20:21:39.898Z,23.43
2022-08-18T20:26:47.008Z,23.36
2022-08-18T20:32:00.281Z,23.25
2022-08-18T20:37:08.162Z,23.05
2022-08-18T20:42:55.863Z,23.08
2022-08-18T20:48:17.377Z,23.10
2022-08-18T20:53:36.143Z,23.05
2022-08-18T20:58:45.869Z,23.04
2022-08-18T21:03:47.103Z,22.99
2022-08-18T21:08:51.049Z,22.87
2022-08-18T21:13:55.327Z,22.81
2022-08-18T21:19:01.173Z,22.72
2022-08-18T21:24:03.634Z,22.80
2022-08-18T21:29:09.013Z,22.71
2022-08-18T21:34:12.672Z,22.61
2022-08-18T21:39:17.354Z,22.60
2022-08-18T21:44:24.270Z,22.53
2022-08-18T21:49:27.115Z,22.52
2022-08-18T21:54:34.586Z,22.53
2022-08-18T21:59:37.383Z,22.36
2022-08-18T22:04:46.297Z,22.06
2022-08-18T22:10:16.809Z,22.07
2022-08-18T22:15:21.597Z,22.02
2022-08-18T22:20:47.359Z,21.99
2022-08-18T22:25:48.959Z,21.95
2022-08-18T22:30:50.922Z,21.88
2022-08-18T22:35:55.000Z,21.88
2022-08-18T22:40:55.681Z,21.85
2022-08-18T22:45:57.636Z,21.88
2022-08-18T22:50:58.381Z,21.87
2022-08-18T22:56:05.880Z,21.77
2022-08-18T23:01:10.378Z,21.75
2022-08-18T23:06:11.278Z,21.71
2022-08-18T23:11:12.598Z,21.67
2022-08-18T23:16:31.719Z,21.65
2022-08-18T23:21:34.772Z,21.58
2022-08-18T23:26:36.493Z,21.45
2022-08-18T23:31:39.960Z,21.43
2022-08-18T23:36:45.294Z,21.45
2022-08-18T23:41:46.486Z,21.38
2022-08-18T23:46:50.848Z,21.39
2022-08-18T23:51:55.518Z,21.34
2022-08-18T23:56:56.123Z,21.34
